sensor_id;sensor_type;location;lat;lon;timestamp;temperature;humidity
563;DHT22;266;49.514;8.294;2024-01-16T00:01:34;-0.10;99.90
563;DHT22;266;49.514;8.294;2024-01-16T00:04:02;-0.20;99.90
563;DHT22;266;49.514;8.294;2024-01-16T00:06:31;-0.20;99.90
563;DHT22;266;49.514;8.294;2024-01-16T00:08:59;-0.30;99.90
563;DHT22;266;49.514;8.294;2024-01-16T00:11:28;-0.40;99.90
563;DHT22;266;49.514;8.294;2024-01-16T00:13:56;-0.50;99.90
563;DHT22;266;49.514;8.294;2024-01-16T00:16:24;-0.50;99.90
563;DHT22;266;49.514;8.294;2024-01-16T00:18:52;-0.40;99.90
563;DHT22;266;49.514;8.294;2024-01-16T00:21:20;-0.40;99.90
563;DHT22;266;49.514;8.294;2024-01-16T00:23:47;-0.30;99.90
563;DHT22;266;49.514;8.294;2024-01-16T00:26:20;-0.20;99.90
563;DHT22;266;49.514;8.294;2024-01-16T00:28:50;-0.10;99.90
563;DHT22;266;49.514;8.294;2024-01-16T00:31:19;0.00;99.90
563;DHT22;266;49.514;8.294;2024-01-16T00:33:47;0.10;99.90
563;DHT22;266;49.514;8.294;2024-01-16T00:36:15;0.10;99.90
563;DHT22;266;49.514;8.294;2024-01-16T00:38:43;0.10;99.90
563;DHT22;266;49.514;8.294;2024-01-16T00:41:12;0.10;99.90
563;DHT22;266;49.514;8.294;2024-01-16T00:43:42;0.00;99.90
563;DHT22;266;49.514;8.294;2024-01-16T00:46:11;0.00;99.90
563;DHT22;266;49.514;8.294;2024-01-16T00:48:39;0.00;99.90
563;DHT22;266;49.514;8.294;2024-01-16T00:51:08;0.00;99.90
563;DHT22;266;49.514;8.294;2024-01-16T00:53:40;-0.10;99.90
563;DHT22;266;49.514;8.294;2024-01-16T00:56:09;0.00;99.90
563;DHT22;266;49.514;8.294;2024-01-16T00:58:37;0.00;99.90
563;DHT22;266;49.514;8.294;2024-01-16T01:01:05;0.00;99.90
563;DHT22;266;49.514;8.294;2024-01-16T01:03:34;0.00;99.90
563;DHT22;266;49.514;8.294;2024-01-16T01:06:03;0.00;99.90
563;DHT22;266;49.514;8.294;2024-01-16T01:08:31;-0.10;99.90
563;DHT22;266;49.514;8.294;2024-01-16T01:10:59;-0.10;99.90
563;DHT22;266;49.514;8.294;2024-01-16T01:13:27;-0.20;99.90
563;DHT22;266;49.514;8.294;2024-01-16T01:15:54;-0.20;99.90
563;DHT22;266;49.514;8.294;2024-01-16T01:18:22;-0.20;99.90
563;DHT22;266;49.514;8.294;2024-01-16T01:20:52;-0.30;99.90
563;DHT22;266;49.514;8.294;2024-01-16T01:23:20;-0.30;99.90
563;DHT22;266;49.514;8.294;2024-01-16T01:25:48;-0.30;99.90
563;DHT22;266;49.514;8.294;2024-01-16T01:28:16;-0.30;99.90
563;DHT22;266;49.514;8.294;2024-01-16T01:30:44;-0.20;99.90
563;DHT22;266;49.514;8.294;2024-01-16T01:33:12;-0.20;99.90
563;DHT22;266;49.514;8.294;2024-01-16T01:35:40;-0.20;99.90
563;DHT22;266;49.514;8.294;2024-01-16T01:38:09;-0.30;99.90
563;DHT22;266;49.514;8.294;2024-01-16T01:40:37;-0.30;99.90
563;DHT22;266;49.514;8.294;2024-01-16T01:43:18;-0.30;99.90
563;DHT22;266;49.514;8.294;2024-01-16T01:45:57;-0.30;99.90
563;DHT22;266;49.514;8.294;2024-01-16T01:48:27;-0.30;99.90
563;DHT22;266;49.514;8.294;2024-01-16T01:50:55;-0.20;99.90
563;DHT22;266;49.514;8.294;2024-01-16T01:53:24;-0.20;99.90
563;DHT22;266;49.514;8.294;2024-01-16T01:55:53;-0.10;99.90
563;DHT22;266;49.514;8.294;2024-01-16T01:58:21;-0.10;99.90
563;DHT22;266;49.514;8.294;2024-01-16T02:00:50;-0.10;99.90
563;DHT22;266;49.514;8.294;2024-01-16T02:03:19;-0.10;99.90
563;DHT22;266;49.514;8.294;2024-01-16T02:05:49;-0.10;99.90
563;DHT22;266;49.514;8.294;2024-01-16T02:08:18;0.00;99.90
563;DHT22;266;49.514;8.294;2024-01-16T02:10:47;-0.10;99.90
563;DHT22;266;49.514;8.294;2024-01-16T02:13:18;-0.10;99.90
563;DHT22;266;49.514;8.294;2024-01-16T02:15:50;-0.10;99.90
563;DHT22;266;49.514;8.294;2024-01-16T02:18:18;-0.20;99.90
563;DHT22;266;49.514;8.294;2024-01-16T02:20:46;-0.20;99.90
563;DHT22;266;49.514;8.294;2024-01-16T02:23:15;-0.20;99.90
563;DHT22;266;49.514;8.294;2024-01-16T02:25:47;-0.30;99.90
563;DHT22;266;49.514;8.294;2024-01-16T02:28:15;-0.20;99.90
563;DHT22;266;49.514;8.294;2024-01-16T02:30:43;-0.20;99.90
563;DHT22;266;49.514;8.294;2024-01-16T02:33:11;-0.20;99.90
563;DHT22;266;49.514;8.294;2024-01-16T02:35:39;-0.20;99.90
563;DHT22;266;49.514;8.294;2024-01-16T02:38:07;-0.10;99.90
563;DHT22;266;49.514;8.294;2024-01-16T02:40:35;-0.20;99.90
563;DHT22;266;49.514;8.294;2024-01-16T02:43:05;-0.10;99.90
563;DHT22;266;49.514;8.294;2024-01-16T02:45:33;-0.10;99.90
563;DHT22;266;49.514;8.294;2024-01-16T02:48:01;-0.10;99.90
563;DHT22;266;49.514;8.294;2024-01-16T02:50:30;-0.20;99.90
563;DHT22;266;49.514;8.294;2024-01-16T02:52:59;-0.20;99.90
563;DHT22;266;49.514;8.294;2024-01-16T02:55:27;-0.10;99.90
563;DHT22;266;49.514;8.294;2024-01-16T02:57:56;-0.10;99.90
563;DHT22;266;49.514;8.294;2024-01-16T03:00:25;-0.10;99.90
563;DHT22;266;49.514;8.294;2024-01-16T03:02:53;-0.10;99.90
563;DHT22;266;49.514;8.294;2024-01-16T03:05:21;-0.10;99.90
563;DHT22;266;49.514;8.294;2024-01-16T03:07:49;-0.10;99.90
563;DHT22;266;49.514;8.294;2024-01-16T03:10:17;-0.10;99.90
563;DHT22;266;49.514;8.294;2024-01-16T03:12:45;-0.10;99.90
563;DHT22;266;49.514;8.294;2024-01-16T03:15:13;-0.10;99.90
563;DHT22;266;49.514;8.294;2024-01-16T03:17:43;-0.20;99.90
563;DHT22;266;49.514;8.294;2024-01-16T03:20:11;-0.10;99.90
563;DHT22;266;49.514;8.294;2024-01-16T03:22:39;-0.20;99.90
563;DHT22;266;49.514;8.294;2024-01-16T03:25:08;-0.20;99.90
563;DHT22;266;49.514;8.294;2024-01-16T03:27:37;-0.10;99.90
563;DHT22;266;49.514;8.294;2024-01-16T03:30:06;-0.10;99.90
563;DHT22;266;49.514;8.294;2024-01-16T03:32:35;-0.10;99.90
563;DHT22;266;49.514;8.294;2024-01-16T03:35:06;-0.20;99.90
563;DHT22;266;49.514;8.294;2024-01-16T03:37:34;-0.20;99.90
563;DHT22;266;49.514;8.294;2024-01-16T03:40:27;-0.20;99.90
563;DHT22;266;49.514;8.294;2024-01-16T03:43:01;-0.10;99.90
563;DHT22;266;49.514;8.294;2024-01-16T03:45:29;-0.10;99.90
563;DHT22;266;49.514;8.294;2024-01-16T03:47:58;-0.10;99.90
563;DHT22;266;49.514;8.294;2024-01-16T03:50:28;-0.10;99.90
563;DHT22;266;49.514;8.294;2024-01-16T03:52:56;-0.20;99.90
563;DHT22;266;49.514;8.294;2024-01-16T03:55:24;-0.20;99.90
563;DHT22;266;49.514;8.294;2024-01-16T03:57:52;-0.10;99.90
563;DHT22;266;49.514;8.294;2024-01-16T04:00:20;-0.10;99.90
563;DHT22;266;49.514;8.294;2024-01-16T04:02:48;-0.10;99.90
563;DHT22;266;49.514;8.294;2024-01-16T04:05:16;-0.10;99.90
563;DHT22;266;49.514;8.294;2024-01-16T04:07:46;-0.10;99.90
563;DHT22;266;49.514;8.294;2024-01-16T04:10:13;-0.10;99.90
563;DHT22;266;49.514;8.294;2024-01-16T04:12:41;-0.10;99.90
563;DHT22;266;49.514;8.294;2024-01-16T04:15:09;-0.10;99.90
563;DHT22;266;49.514;8.294;2024-01-16T04:17:38;-0.20;99.90
563;DHT22;266;49.514;8.294;2024-01-16T04:20:06;-0.20;99.90
563;DHT22;266;49.514;8.294;2024-01-16T04:22:36;-0.20;99.90
563;DHT22;266;49.514;8.294;2024-01-16T04:25:06;-0.20;99.90
563;DHT22;266;49.514;8.294;2024-01-16T04:27:34;-0.20;99.90
563;DHT22;266;49.514;8.294;2024-01-16T04:30:02;-0.20;99.90
563;DHT22;266;49.514;8.294;2024-01-16T04:32:31;-0.30;99.90
563;DHT22;266;49.514;8.294;2024-01-16T04:34:59;-0.30;99.90
563;DHT22;266;49.514;8.294;2024-01-16T04:37:27;-0.30;99.90
563;DHT22;266;49.514;8.294;2024-01-16T04:39:55;-0.40;99.90
563;DHT22;266;49.514;8.294;2024-01-16T04:42:25;-0.40;99.90
563;DHT22;266;49.514;8.294;2024-01-16T04:44:53;-0.40;99.90
563;DHT22;266;49.514;8.294;2024-01-16T04:47:22;-0.50;99.90
563;DHT22;266;49.514;8.294;2024-01-16T04:49:50;-0.40;99.90
563;DHT22;266;49.514;8.294;2024-01-16T04:52:17;-0.50;99.90
563;DHT22;266;49.514;8.294;2024-01-16T04:54:45;-0.40;99.90
563;DHT22;266;49.514;8.294;2024-01-16T04:57:13;-0.30;99.90
563;DHT22;266;49.514;8.294;2024-01-16T04:59:43;-0.30;99.90
563;DHT22;266;49.514;8.294;2024-01-16T05:02:11;-0.30;99.90
563;DHT22;266;49.514;8.294;2024-01-16T05:04:46;-0.30;99.90
563;DHT22;266;49.514;8.294;2024-01-16T05:07:18;-0.30;99.90
563;DHT22;266;49.514;8.294;2024-01-16T05:09:47;-0.20;99.90
563;DHT22;266;49.514;8.294;2024-01-16T05:12:16;-0.20;99.90
563;DHT22;266;49.514;8.294;2024-01-16T05:14:45;0.00;99.90
563;DHT22;266;49.514;8.294;2024-01-16T05:17:13;0.20;99.90
563;DHT22;266;49.514;8.294;2024-01-16T05:19:41;0.20;99.90
563;DHT22;266;49.514;8.294;2024-01-16T05:22:10;0.10;99.90
563;DHT22;266;49.514;8.294;2024-01-16T05:24:38;0.00;99.90
563;DHT22;266;49.514;8.294;2024-01-16T05:27:06;-0.10;99.90
563;DHT22;266;49.514;8.294;2024-01-16T05:29:35;-0.40;99.90
563;DHT22;266;49.514;8.294;2024-01-16T05:32:08;-0.60;99.90
563;DHT22;266;49.514;8.294;2024-01-16T05:34:37;-0.80;99.90
563;DHT22;266;49.514;8.294;2024-01-16T05:37:05;-1.00;99.90
563;DHT22;266;49.514;8.294;2024-01-16T05:39:33;-1.00;99.90
563;DHT22;266;49.514;8.294;2024-01-16T05:42:01;-1.10;99.90
563;DHT22;266;49.514;8.294;2024-01-16T05:44:29;-1.20;99.90
563;DHT22;266;49.514;8.294;2024-01-16T05:46:57;-1.20;99.90
563;DHT22;266;49.514;8.294;2024-01-16T05:49:26;-1.20;99.90
563;DHT22;266;49.514;8.294;2024-01-16T05:51:54;-1.30;99.90
563;DHT22;266;49.514;8.294;2024-01-16T05:54:22;-1.30;99.90
563;DHT22;266;49.514;8.294;2024-01-16T05:56:50;-1.40;99.90
563;DHT22;266;49.514;8.294;2024-01-16T05:59:18;-1.40;99.90
563;DHT22;266;49.514;8.294;2024-01-16T06:01:46;-1.50;99.90
563;DHT22;266;49.514;8.294;2024-01-16T06:04:16;-1.50;99.90
563;DHT22;266;49.514;8.294;2024-01-16T06:06:45;-1.60;99.90
563;DHT22;266;49.514;8.294;2024-01-16T06:09:14;-1.60;99.90
563;DHT22;266;49.514;8.294;2024-01-16T06:11:43;-1.60;99.90
563;DHT22;266;49.514;8.294;2024-01-16T06:14:11;-1.60;99.90
563;DHT22;266;49.514;8.294;2024-01-16T06:16:40;-1.70;99.90
563;DHT22;266;49.514;8.294;2024-01-16T06:19:07;-1.80;99.90
563;DHT22;266;49.514;8.294;2024-01-16T06:21:36;-1.80;99.90
563;DHT22;266;49.514;8.294;2024-01-16T06:24:05;-1.90;99.90
563;DHT22;266;49.514;8.294;2024-01-16T06:26:34;-1.90;99.90
563;DHT22;266;49.514;8.294;2024-01-16T06:29:02;-1.80;99.90
563;DHT22;266;49.514;8.294;2024-01-16T06:31:30;-1.90;99.90
563;DHT22;266;49.514;8.294;2024-01-16T06:33:58;-1.80;99.90
563;DHT22;266;49.514;8.294;2024-01-16T06:36:26;-1.70;99.90
563;DHT22;266;49.514;8.294;2024-01-16T06:38:54;-1.70;99.90
563;DHT22;266;49.514;8.294;2024-01-16T06:41:23;-1.60;99.90
563;DHT22;266;49.514;8.294;2024-01-16T06:43:51;-1.60;99.90
563;DHT22;266;49.514;8.294;2024-01-16T06:46:19;-1.60;99.90
563;DHT22;266;49.514;8.294;2024-01-16T06:48:47;-1.50;99.90
563;DHT22;266;49.514;8.294;2024-01-16T06:51:15;-1.50;99.90
563;DHT22;266;49.514;8.294;2024-01-16T06:53:44;-1.40;99.90
563;DHT22;266;49.514;8.294;2024-01-16T06:56:12;-1.40;99.90
563;DHT22;266;49.514;8.294;2024-01-16T06:58:41;-1.40;99.90
563;DHT22;266;49.514;8.294;2024-01-16T07:01:09;-1.40;99.90
563;DHT22;266;49.514;8.294;2024-01-16T07:03:37;-1.40;99.90
563;DHT22;266;49.514;8.294;2024-01-16T07:06:05;-1.50;99.90
563;DHT22;266;49.514;8.294;2024-01-16T07:08:33;-1.60;99.90
563;DHT22;266;49.514;8.294;2024-01-16T07:11:02;-1.70;99.90
563;DHT22;266;49.514;8.294;2024-01-16T07:13:34;-1.80;99.90
563;DHT22;266;49.514;8.294;2024-01-16T07:16:04;-1.90;99.90
563;DHT22;266;49.514;8.294;2024-01-16T07:18:32;-1.80;99.90
563;DHT22;266;49.514;8.294;2024-01-16T07:21:00;-1.80;99.90
563;DHT22;266;49.514;8.294;2024-01-16T07:23:30;-1.70;99.90
563;DHT22;266;49.514;8.294;2024-01-16T07:25:58;-1.70;99.90
563;DHT22;266;49.514;8.294;2024-01-16T07:28:27;-1.70;99.90
563;DHT22;266;49.514;8.294;2024-01-16T07:30:55;-1.70;99.90
563;DHT22;266;49.514;8.294;2024-01-16T07:33:25;-1.70;99.90
563;DHT22;266;49.514;8.294;2024-01-16T07:35:54;-1.70;99.90
563;DHT22;266;49.514;8.294;2024-01-16T07:38:22;-1.70;99.90
563;DHT22;266;49.514;8.294;2024-01-16T07:40:50;-1.60;99.90
563;DHT22;266;49.514;8.294;2024-01-16T07:43:18;-1.60;99.90
563;DHT22;266;49.514;8.294;2024-01-16T07:45:46;-1.50;99.90
563;DHT22;266;49.514;8.294;2024-01-16T07:48:14;-1.50;99.90
563;DHT22;266;49.514;8.294;2024-01-16T07:50:44;-1.50;99.90
563;DHT22;266;49.514;8.294;2024-01-16T07:53:12;-1.40;99.90
563;DHT22;266;49.514;8.294;2024-01-16T07:55:41;-1.50;99.90
563;DHT22;266;49.514;8.294;2024-01-16T07:58:10;-1.40;99.90
563;DHT22;266;49.514;8.294;2024-01-16T08:00:38;-1.40;99.90
563;DHT22;266;49.514;8.294;2024-01-16T08:03:08;-1.40;99.90
563;DHT22;266;49.514;8.294;2024-01-16T08:05:38;-1.40;99.90
563;DHT22;266;49.514;8.294;2024-01-16T08:08:09;-1.40;99.90
563;DHT22;266;49.514;8.294;2024-01-16T08:10:41;-1.40;99.90
563;DHT22;266;49.514;8.294;2024-01-16T08:13:09;-1.40;99.90
563;DHT22;266;49.514;8.294;2024-01-16T08:15:37;-1.30;99.90
563;DHT22;266;49.514;8.294;2024-01-16T08:18:05;-1.30;99.90
563;DHT22;266;49.514;8.294;2024-01-16T08:20:33;-1.20;99.90
563;DHT22;266;49.514;8.294;2024-01-16T08:23:01;-1.20;99.90
563;DHT22;266;49.514;8.294;2024-01-16T08:25:30;-1.20;99.90
563;DHT22;266;49.514;8.294;2024-01-16T08:27:58;-1.20;99.90
563;DHT22;266;49.514;8.294;2024-01-16T08:30:27;-1.10;99.90
563;DHT22;266;49.514;8.294;2024-01-16T08:32:55;-1.10;99.90
563;DHT22;266;49.514;8.294;2024-01-16T08:35:24;-1.00;99.90
563;DHT22;266;49.514;8.294;2024-01-16T08:37:52;-1.00;99.90
563;DHT22;266;49.514;8.294;2024-01-16T08:40:20;-0.90;99.90
563;DHT22;266;49.514;8.294;2024-01-16T08:42:49;-0.90;99.90
563;DHT22;266;49.514;8.294;2024-01-16T08:45:24;-0.90;99.90
563;DHT22;266;49.514;8.294;2024-01-16T08:47:53;-0.90;99.90
563;DHT22;266;49.514;8.294;2024-01-16T08:50:21;-0.90;99.90
563;DHT22;266;49.514;8.294;2024-01-16T08:52:49;-1.00;99.90
563;DHT22;266;49.514;8.294;2024-01-16T08:55:18;-0.90;99.90
563;DHT22;266;49.514;8.294;2024-01-16T08:57:46;-0.90;99.90
563;DHT22;266;49.514;8.294;2024-01-16T09:00:16;-0.90;99.90
563;DHT22;266;49.514;8.294;2024-01-16T09:02:44;-0.80;99.90
563;DHT22;266;49.514;8.294;2024-01-16T09:05:12;-0.80;99.90
563;DHT22;266;49.514;8.294;2024-01-16T09:07:41;-0.80;99.90
563;DHT22;266;49.514;8.294;2024-01-16T09:10:10;-0.80;99.90
563;DHT22;266;49.514;8.294;2024-01-16T09:12:38;-0.70;99.90
563;DHT22;266;49.514;8.294;2024-01-16T09:15:07;-0.70;99.90
563;DHT22;266;49.514;8.294;2024-01-16T09:17:37;-0.70;99.90
563;DHT22;266;49.514;8.294;2024-01-16T09:20:07;-0.60;99.90
563;DHT22;266;49.514;8.294;2024-01-16T09:22:35;-0.50;99.90
563;DHT22;266;49.514;8.294;2024-01-16T09:25:04;-0.30;99.90
563;DHT22;266;49.514;8.294;2024-01-16T09:27:32;-0.20;99.90
563;DHT22;266;49.514;8.294;2024-01-16T09:30:00;-0.20;99.90
563;DHT22;266;49.514;8.294;2024-01-16T09:32:28;-0.20;99.90
563;DHT22;266;49.514;8.294;2024-01-16T09:34:57;-0.20;99.90
563;DHT22;266;49.514;8.294;2024-01-16T09:37:27;-0.30;99.90
563;DHT22;266;49.514;8.294;2024-01-16T09:39:55;-0.30;99.90
563;DHT22;266;49.514;8.294;2024-01-16T09:42:23;-0.40;99.90
563;DHT22;266;49.514;8.294;2024-01-16T09:44:52;-0.30;99.90
563;DHT22;266;49.514;8.294;2024-01-16T09:47:22;-0.30;99.90
563;DHT22;266;49.514;8.294;2024-01-16T09:49:52;-0.30;99.90
563;DHT22;266;49.514;8.294;2024-01-16T09:52:23;-0.40;99.90
563;DHT22;266;49.514;8.294;2024-01-16T09:54:50;-0.30;99.90
563;DHT22;266;49.514;8.294;2024-01-16T09:57:19;-0.20;99.90
563;DHT22;266;49.514;8.294;2024-01-16T09:59:49;-0.20;99.90
563;DHT22;266;49.514;8.294;2024-01-16T10:02:19;-0.10;99.90
563;DHT22;266;49.514;8.294;2024-01-16T10:04:48;-0.10;99.90
563;DHT22;266;49.514;8.294;2024-01-16T10:07:17;0.00;99.90
563;DHT22;266;49.514;8.294;2024-01-16T10:09:49;0.00;99.90
563;DHT22;266;49.514;8.294;2024-01-16T10:12:17;0.00;99.90
563;DHT22;266;49.514;8.294;2024-01-16T10:14:45;0.10;99.90
563;DHT22;266;49.514;8.294;2024-01-16T10:17:13;0.10;99.90
563;DHT22;266;49.514;8.294;2024-01-16T10:19:48;0.20;99.90
563;DHT22;266;49.514;8.294;2024-01-16T10:22:20;0.20;99.90
563;DHT22;266;49.514;8.294;2024-01-16T10:25:04;0.20;99.90
563;DHT22;266;49.514;8.294;2024-01-16T10:27:33;0.30;99.90
563;DHT22;266;49.514;8.294;2024-01-16T10:30:02;0.30;99.90
563;DHT22;266;49.514;8.294;2024-01-16T10:32:34;0.30;99.90
563;DHT22;266;49.514;8.294;2024-01-16T10:35:06;0.30;99.90
563;DHT22;266;49.514;8.294;2024-01-16T10:37:41;0.30;99.90
563;DHT22;266;49.514;8.294;2024-01-16T10:40:14;0.40;99.90
563;DHT22;266;49.514;8.294;2024-01-16T10:42:43;0.40;99.90
563;DHT22;266;49.514;8.294;2024-01-16T10:45:17;0.40;99.90
563;DHT22;266;49.514;8.294;2024-01-16T10:47:46;0.40;99.90
563;DHT22;266;49.514;8.294;2024-01-16T10:50:15;0.50;99.90
563;DHT22;266;49.514;8.294;2024-01-16T10:52:47;0.60;99.90
563;DHT22;266;49.514;8.294;2024-01-16T10:55:20;0.60;99.90
563;DHT22;266;49.514;8.294;2024-01-16T10:57:49;0.70;99.90
563;DHT22;266;49.514;8.294;2024-01-16T11:00:19;0.80;99.90
563;DHT22;266;49.514;8.294;2024-01-16T11:02:58;0.80;99.90
563;DHT22;266;49.514;8.294;2024-01-16T11:05:28;0.90;99.90
563;DHT22;266;49.514;8.294;2024-01-16T11:07:59;0.90;99.90
563;DHT22;266;49.514;8.294;2024-01-16T11:10:29;1.00;99.90
563;DHT22;266;49.514;8.294;2024-01-16T11:13:01;1.10;99.90
563;DHT22;266;49.514;8.294;2024-01-16T11:15:29;1.10;99.90
563;DHT22;266;49.514;8.294;2024-01-16T11:17:59;1.10;99.90
563;DHT22;266;49.514;8.294;2024-01-16T11:20:28;1.10;99.90
563;DHT22;266;49.514;8.294;2024-01-16T11:23:17;1.20;99.90
563;DHT22;266;49.514;8.294;2024-01-16T11:25:47;1.20;99.90
563;DHT22;266;49.514;8.294;2024-01-16T11:28:15;1.20;99.90
563;DHT22;266;49.514;8.294;2024-01-16T11:30:45;1.30;99.90
563;DHT22;266;49.514;8.294;2024-01-16T11:33:43;1.30;99.90
563;DHT22;266;49.514;8.294;2024-01-16T11:36:50;1.40;99.90
563;DHT22;266;49.514;8.294;2024-01-16T11:39:22;1.40;99.90
563;DHT22;266;49.514;8.294;2024-01-16T11:41:56;1.40;99.90
563;DHT22;266;49.514;8.294;2024-01-16T11:44:40;1.40;99.90
563;DHT22;266;49.514;8.294;2024-01-16T11:47:15;1.50;99.90
563;DHT22;266;49.514;8.294;2024-01-16T11:49:43;1.50;99.90
563;DHT22;266;49.514;8.294;2024-01-16T11:52:12;1.60;99.90
563;DHT22;266;49.514;8.294;2024-01-16T11:54:41;1.60;99.90
563;DHT22;266;49.514;8.294;2024-01-16T11:57:47;1.60;99.90
563;DHT22;266;49.514;8.294;2024-01-16T12:00:21;1.70;99.90
563;DHT22;266;49.514;8.294;2024-01-16T12:02:52;1.70;99.90
563;DHT22;266;49.514;8.294;2024-01-16T12:05:21;1.80;99.90
563;DHT22;266;49.514;8.294;2024-01-16T12:07:51;1.80;99.90
563;DHT22;266;49.514;8.294;2024-01-16T12:10:22;1.90;99.90
563;DHT22;266;49.514;8.294;2024-01-16T12:12:57;1.90;99.90
563;DHT22;266;49.514;8.294;2024-01-16T12:15:31;1.80;99.90
563;DHT22;266;49.514;8.294;2024-01-16T12:18:00;1.80;99.90
563;DHT22;266;49.514;8.294;2024-01-16T12:20:31;1.90;99.90
563;DHT22;266;49.514;8.294;2024-01-16T12:23:01;1.90;99.90
563;DHT22;266;49.514;8.294;2024-01-16T12:25:31;1.90;99.90
563;DHT22;266;49.514;8.294;2024-01-16T12:28:21;2.00;99.90
563;DHT22;266;49.514;8.294;2024-01-16T12:30:59;2.00;99.90
563;DHT22;266;49.514;8.294;2024-01-16T12:33:28;2.10;99.90
563;DHT22;266;49.514;8.294;2024-01-16T12:36:01;2.20;99.90
563;DHT22;266;49.514;8.294;2024-01-16T12:38:32;2.30;99.90
563;DHT22;266;49.514;8.294;2024-01-16T12:41:01;2.30;99.90
563;DHT22;266;49.514;8.294;2024-01-16T12:43:33;2.40;99.90
563;DHT22;266;49.514;8.294;2024-01-16T12:46:00;2.40;99.90
563;DHT22;266;49.514;8.294;2024-01-16T12:48:29;2.30;99.90
563;DHT22;266;49.514;8.294;2024-01-16T12:51:01;2.40;99.90
563;DHT22;266;49.514;8.294;2024-01-16T12:53:32;2.50;99.90
563;DHT22;266;49.514;8.294;2024-01-16T12:56:02;2.50;99.90
563;DHT22;266;49.514;8.294;2024-01-16T12:58:35;2.50;99.90
563;DHT22;266;49.514;8.294;2024-01-16T13:01:21;2.60;99.90
563;DHT22;266;49.514;8.294;2024-01-16T13:04:05;2.50;99.90
563;DHT22;266;49.514;8.294;2024-01-16T13:06:33;2.60;99.90
563;DHT22;266;49.514;8.294;2024-01-16T13:09:07;2.50;99.90
563;DHT22;266;49.514;8.294;2024-01-16T13:11:50;2.50;99.90
563;DHT22;266;49.514;8.294;2024-01-16T13:14:21;2.40;99.90
563;DHT22;266;49.514;8.294;2024-01-16T13:16:50;2.50;99.90
563;DHT22;266;49.514;8.294;2024-01-16T13:19:19;2.50;99.90
563;DHT22;266;49.514;8.294;2024-01-16T13:21:47;2.50;99.90
563;DHT22;266;49.514;8.294;2024-01-16T13:24:15;2.60;99.90
563;DHT22;266;49.514;8.294;2024-01-16T13:26:48;2.60;99.90
563;DHT22;266;49.514;8.294;2024-01-16T13:29:16;2.50;99.90
563;DHT22;266;49.514;8.294;2024-01-16T13:31:45;2.60;99.90
563;DHT22;266;49.514;8.294;2024-01-16T13:34:13;2.60;99.90
563;DHT22;266;49.514;8.294;2024-01-16T13:36:44;2.70;99.90
563;DHT22;266;49.514;8.294;2024-01-16T13:39:32;2.70;99.90
563;DHT22;266;49.514;8.294;2024-01-16T13:42:05;2.70;99.90
563;DHT22;266;49.514;8.294;2024-01-16T13:44:33;2.70;99.90
563;DHT22;266;49.514;8.294;2024-01-16T13:47:03;2.70;99.90
563;DHT22;266;49.514;8.294;2024-01-16T13:49:37;2.70;99.90
563;DHT22;266;49.514;8.294;2024-01-16T13:52:07;2.70;99.90
563;DHT22;266;49.514;8.294;2024-01-16T13:54:36;2.80;99.90
563;DHT22;266;49.514;8.294;2024-01-16T13:57:06;2.80;99.90
563;DHT22;266;49.514;8.294;2024-01-16T13:59:36;2.70;99.90
563;DHT22;266;49.514;8.294;2024-01-16T14:02:07;2.70;99.90
563;DHT22;266;49.514;8.294;2024-01-16T14:04:35;2.70;99.90
563;DHT22;266;49.514;8.294;2024-01-16T14:07:04;2.60;99.90
563;DHT22;266;49.514;8.294;2024-01-16T14:09:35;2.70;99.90
563;DHT22;266;49.514;8.294;2024-01-16T14:12:04;2.70;99.90
563;DHT22;266;49.514;8.294;2024-01-16T14:14:34;2.70;99.90
563;DHT22;266;49.514;8.294;2024-01-16T14:17:03;2.80;99.90
563;DHT22;266;49.514;8.294;2024-01-16T14:19:34;2.90;99.90
563;DHT22;266;49.514;8.294;2024-01-16T14:22:03;3.30;99.90
563;DHT22;266;49.514;8.294;2024-01-16T14:24:31;4.20;99.90
563;DHT22;266;49.514;8.294;2024-01-16T14:26:59;5.40;99.90
563;DHT22;266;49.514;8.294;2024-01-16T14:29:26;6.80;99.90
563;DHT22;266;49.514;8.294;2024-01-16T14:31:55;8.00;99.90
563;DHT22;266;49.514;8.294;2024-01-16T14:34:25;8.50;99.90
563;DHT22;266;49.514;8.294;2024-01-16T14:36:56;7.90;99.90
563;DHT22;266;49.514;8.294;2024-01-16T14:39:24;6.90;99.90
563;DHT22;266;49.514;8.294;2024-01-16T14:41:53;6.80;99.90
563;DHT22;266;49.514;8.294;2024-01-16T14:44:21;6.90;99.90
563;DHT22;266;49.514;8.294;2024-01-16T14:46:50;6.00;99.90
563;DHT22;266;49.514;8.294;2024-01-16T14:49:20;5.10;99.90
563;DHT22;266;49.514;8.294;2024-01-16T14:51:49;4.30;99.90
563;DHT22;266;49.514;8.294;2024-01-16T14:54:19;3.70;99.90
563;DHT22;266;49.514;8.294;2024-01-16T14:56:47;3.40;99.90
563;DHT22;266;49.514;8.294;2024-01-16T14:59:16;3.00;99.90
563;DHT22;266;49.514;8.294;2024-01-16T15:01:44;2.70;99.90
563;DHT22;266;49.514;8.294;2024-01-16T15:04:12;2.50;99.90
563;DHT22;266;49.514;8.294;2024-01-16T15:06:41;2.30;99.90
563;DHT22;266;49.514;8.294;2024-01-16T15:09:09;2.20;99.90
563;DHT22;266;49.514;8.294;2024-01-16T15:11:42;2.10;99.90
563;DHT22;266;49.514;8.294;2024-01-16T15:14:14;2.00;99.90
563;DHT22;266;49.514;8.294;2024-01-16T15:16:44;1.90;99.90
563;DHT22;266;49.514;8.294;2024-01-16T15:19:12;1.90;99.90
563;DHT22;266;49.514;8.294;2024-01-16T15:21:41;2.00;99.90
563;DHT22;266;49.514;8.294;2024-01-16T15:24:09;2.20;99.90
563;DHT22;266;49.514;8.294;2024-01-16T15:26:44;2.20;99.90
563;DHT22;266;49.514;8.294;2024-01-16T15:29:12;2.30;99.90
563;DHT22;266;49.514;8.294;2024-01-16T15:31:40;2.30;99.90
563;DHT22;266;49.514;8.294;2024-01-16T15:34:08;2.10;99.90
563;DHT22;266;49.514;8.294;2024-01-16T15:36:39;1.90;99.90
563;DHT22;266;49.514;8.294;2024-01-16T15:39:07;1.80;99.90
563;DHT22;266;49.514;8.294;2024-01-16T15:41:35;1.70;99.90
563;DHT22;266;49.514;8.294;2024-01-16T15:44:04;1.60;99.90
563;DHT22;266;49.514;8.294;2024-01-16T15:46:56;1.40;99.90
563;DHT22;266;49.514;8.294;2024-01-16T15:49:24;1.20;99.90
563;DHT22;266;49.514;8.294;2024-01-16T15:51:53;1.00;99.90
563;DHT22;266;49.514;8.294;2024-01-16T15:54:21;0.80;99.90
563;DHT22;266;49.514;8.294;2024-01-16T15:56:50;0.60;99.90
563;DHT22;266;49.514;8.294;2024-01-16T15:59:20;0.50;99.90
563;DHT22;266;49.514;8.294;2024-01-16T16:01:48;0.40;99.90
563;DHT22;266;49.514;8.294;2024-01-16T16:04:17;0.20;99.90
563;DHT22;266;49.514;8.294;2024-01-16T16:06:45;0.10;99.90
563;DHT22;266;49.514;8.294;2024-01-16T16:09:13;0.00;99.90
563;DHT22;266;49.514;8.294;2024-01-16T16:11:42;-0.10;99.90
563;DHT22;266;49.514;8.294;2024-01-16T16:14:11;-0.30;99.90
563;DHT22;266;49.514;8.294;2024-01-16T16:16:42;-0.40;99.90
563;DHT22;266;49.514;8.294;2024-01-16T16:19:10;-0.50;99.90
563;DHT22;266;49.514;8.294;2024-01-16T16:21:38;-0.60;99.90
563;DHT22;266;49.514;8.294;2024-01-16T16:24:06;-0.70;99.90
563;DHT22;266;49.514;8.294;2024-01-16T16:26:36;-0.80;99.90
563;DHT22;266;49.514;8.294;2024-01-16T16:29:05;-0.90;99.90
563;DHT22;266;49.514;8.294;2024-01-16T16:31:33;-0.80;99.90
563;DHT22;266;49.514;8.294;2024-01-16T16:34:03;-0.60;99.90
563;DHT22;266;49.514;8.294;2024-01-16T16:36:32;-0.40;99.90
563;DHT22;266;49.514;8.294;2024-01-16T16:39:00;-0.30;99.90
563;DHT22;266;49.514;8.294;2024-01-16T16:41:28;-0.30;99.90
563;DHT22;266;49.514;8.294;2024-01-16T16:43:56;-0.20;99.90
563;DHT22;266;49.514;8.294;2024-01-16T16:46:26;-0.40;99.90
563;DHT22;266;49.514;8.294;2024-01-16T16:48:55;-0.50;99.90
563;DHT22;266;49.514;8.294;2024-01-16T16:51:25;-0.60;99.90
563;DHT22;266;49.514;8.294;2024-01-16T16:53:53;-0.60;99.90
563;DHT22;266;49.514;8.294;2024-01-16T16:56:23;-0.70;99.90
563;DHT22;266;49.514;8.294;2024-01-16T16:58:52;-0.80;99.90